sensor_id;sensor_type;location;lat;lon;timestamp;temperature;humidity
51825;DHT22;37879;52.986;6.282;2023-03-01T00:02:21;-0.90;99.90
51825;DHT22;37879;52.986;6.282;2023-03-01T00:04:47;-0.90;99.90
51825;DHT22;37879;52.986;6.282;2023-03-01T00:07:13;-1.00;99.90
51825;DHT22;37879;52.986;6.282;2023-03-01T00:09:39;-1.00;99.90
51825;DHT22;37879;52.986;6.282;2023-03-01T00:12:06;-1.00;99.90
51825;DHT22;37879;52.986;6.282;2023-03-01T00:14:31;-0.90;99.90
51825;DHT22;37879;52.986;6.282;2023-03-01T00:16:57;-0.90;99.90
51825;DHT22;37879;52.986;6.282;2023-03-01T00:19:23;-0.90;99.90
51825;DHT22;37879;52.986;6.282;2023-03-01T00:21:49;-1.10;99.90
51825;DHT22;37879;52.986;6.282;2023-03-01T00:24:15;-1.00;99.90
51825;DHT22;37879;52.986;6.282;2023-03-01T00:26:41;1.10;99.90
51825;DHT22;37879;52.986;6.282;2023-03-01T00:29:06;-1.00;99.90
51825;DHT22;37879;52.986;6.282;2023-03-01T00:31:32;-1.00;99.90
51825;DHT22;37879;52.986;6.282;2023-03-01T00:34:01;-3.00;99.90
51825;DHT22;37879;52.986;6.282;2023-03-01T00:36:29;-1.10;99.90
51825;DHT22;37879;52.986;6.282;2023-03-01T00:38:55;0.00;99.90
51825;DHT22;37879;52.986;6.282;2023-03-01T00:41:21;-1.20;99.90
51825;DHT22;37879;52.986;6.282;2023-03-01T00:43:52;-1.20;99.90
51825;DHT22;37879;52.986;6.282;2023-03-01T00:46:21;-1.00;99.90
51825;DHT22;37879;52.986;6.282;2023-03-01T00:48:47;-1.20;99.90
51825;DHT22;37879;52.986;6.282;2023-03-01T00:51:15;-1.30;99.90
51825;DHT22;37879;52.986;6.282;2023-03-01T00:53:42;-1.30;99.90
51825;DHT22;37879;52.986;6.282;2023-03-01T00:56:10;-1.40;99.90
51825;DHT22;37879;52.986;6.282;2023-03-01T00:58:36;-1.40;99.90
51825;DHT22;37879;52.986;6.282;2023-03-01T01:01:31;-1.30;99.90
51825;DHT22;37879;52.986;6.282;2023-03-01T01:04:03;-1.40;99.90
51825;DHT22;37879;52.986;6.282;2023-03-01T01:06:31;-1.40;99.90
51825;DHT22;37879;52.986;6.282;2023-03-01T01:08:58;-1.40;99.90
51825;DHT22;37879;52.986;6.282;2023-03-01T01:11:26;-1.50;99.90
51825;DHT22;37879;52.986;6.282;2023-03-01T01:13:52;-1.40;99.90
51825;DHT22;37879;52.986;6.282;2023-03-01T01:16:19;-1.50;99.90
51825;DHT22;37879;52.986;6.282;2023-03-01T01:18:45;-1.50;99.90
51825;DHT22;37879;52.986;6.282;2023-03-01T01:21:14;-1.40;99.90
51825;DHT22;37879;52.986;6.282;2023-03-01T01:23:41;-1.50;99.90
51825;DHT22;37879;52.986;6.282;2023-03-01T01:26:09;-1.40;99.90
51825;DHT22;37879;52.986;6.282;2023-03-01T01:28:36;-1.60;99.90
51825;DHT22;37879;52.986;6.282;2023-03-01T01:31:02;-1.60;99.90
51825;DHT22;37879;52.986;6.282;2023-03-01T01:35:54;-1.60;99.90
51825;DHT22;37879;52.986;6.282;2023-03-01T01:38:20;-1.60;99.90
51825;DHT22;37879;52.986;6.282;2023-03-01T01:40:48;-1.60;99.90
51825;DHT22;37879;52.986;6.282;2023-03-01T01:43:30;-1.60;99.90
51825;DHT22;37879;52.986;6.282;2023-03-01T01:46:16;-1.70;99.90
51825;DHT22;37879;52.986;6.282;2023-03-01T01:48:47;-1.50;99.90
51825;DHT22;37879;52.986;6.282;2023-03-01T01:51:18;-1.60;99.90
51825;DHT22;37879;52.986;6.282;2023-03-01T01:53:47;-1.70;99.90
51825;DHT22;37879;52.986;6.282;2023-03-01T01:56:16;-1.60;99.90
51825;DHT22;37879;52.986;6.282;2023-03-01T01:58:43;-1.80;99.90
51825;DHT22;37879;52.986;6.282;2023-03-01T02:01:10;-1.70;99.90
51825;DHT22;37879;52.986;6.282;2023-03-01T02:03:38;-1.70;99.90
51825;DHT22;37879;52.986;6.282;2023-03-01T02:06:28;-3.80;99.90
51825;DHT22;37879;52.986;6.282;2023-03-01T02:09:03;-1.90;99.90
51825;DHT22;37879;52.986;6.282;2023-03-01T02:11:32;-2.00;99.90
51825;DHT22;37879;52.986;6.282;2023-03-01T02:13:59;-1.90;99.90
51825;DHT22;37879;52.986;6.282;2023-03-01T02:16:26;-1.90;99.90
51825;DHT22;37879;52.986;6.282;2023-03-01T02:18:52;-1.80;99.90
51825;DHT22;37879;52.986;6.282;2023-03-01T02:23:50;-1.80;99.90
51825;DHT22;37879;52.986;6.282;2023-03-01T02:26:20;-1.80;99.90
51825;DHT22;37879;52.986;6.282;2023-03-01T02:28:50;-1.80;99.90
51825;DHT22;37879;52.986;6.282;2023-03-01T02:31:18;-1.80;99.90
51825;DHT22;37879;52.986;6.282;2023-03-01T02:34:04;-1.80;99.90
51825;DHT22;37879;52.986;6.282;2023-03-01T02:36:44;-1.80;99.90
51825;DHT22;37879;52.986;6.282;2023-03-01T02:39:15;-1.80;99.90
51825;DHT22;37879;52.986;6.282;2023-03-01T02:41:46;-1.80;99.90
51825;DHT22;37879;52.986;6.282;2023-03-01T02:44:12;-1.80;99.90
51825;DHT22;37879;52.986;6.282;2023-03-01T02:46:43;-1.80;99.90
51825;DHT22;37879;52.986;6.282;2023-03-01T02:49:19;-2.90;99.90
51825;DHT22;37879;52.986;6.282;2023-03-01T02:52:23;-2.30;99.90
51825;DHT22;37879;52.986;6.282;2023-03-01T02:55:08;-1.90;99.90
51825;DHT22;37879;52.986;6.282;2023-03-01T02:57:37;-1.90;99.90
51825;DHT22;37879;52.986;6.282;2023-03-01T03:00:13;-1.90;99.90
51825;DHT22;37879;52.986;6.282;2023-03-01T03:02:49;-1.90;99.90
51825;DHT22;37879;52.986;6.282;2023-03-01T03:05:24;-2.00;99.90
51825;DHT22;37879;52.986;6.282;2023-03-01T03:07:50;-2.00;99.90
51825;DHT22;37879;52.986;6.282;2023-03-01T03:10:22;-2.00;99.90
51825;DHT22;37879;52.986;6.282;2023-03-01T03:12:57;-1.80;99.90
51825;DHT22;37879;52.986;6.282;2023-03-01T03:15:24;-2.20;99.90
51825;DHT22;37879;52.986;6.282;2023-03-01T03:17:51;-1.90;99.90
51825;DHT22;37879;52.986;6.282;2023-03-01T03:20:19;-2.30;99.90
51825;DHT22;37879;52.986;6.282;2023-03-01T03:22:48;-2.30;99.90
51825;DHT22;37879;52.986;6.282;2023-03-01T03:25:14;-2.30;99.90
51825;DHT22;37879;52.986;6.282;2023-03-01T03:27:42;-2.30;99.90
51825;DHT22;37879;52.986;6.282;2023-03-01T03:30:12;-2.40;99.90
51825;DHT22;37879;52.986;6.282;2023-03-01T03:32:44;-2.40;99.90
51825;DHT22;37879;52.986;6.282;2023-03-01T03:35:19;-2.40;99.90
51825;DHT22;37879;52.986;6.282;2023-03-01T03:37:46;-2.40;99.90
51825;DHT22;37879;52.986;6.282;2023-03-01T03:40:35;-2.50;99.90
51825;DHT22;37879;52.986;6.282;2023-03-01T03:43:03;-2.50;99.90
51825;DHT22;37879;52.986;6.282;2023-03-01T03:45:29;-2.70;99.90
51825;DHT22;37879;52.986;6.282;2023-03-01T03:47:55;-2.80;99.90
51825;DHT22;37879;52.986;6.282;2023-03-01T03:50:20;-2.80;99.90
51825;DHT22;37879;52.986;6.282;2023-03-01T03:52:46;-3.10;99.90
51825;DHT22;37879;52.986;6.282;2023-03-01T03:55:12;-2.90;99.90
51825;DHT22;37879;52.986;6.282;2023-03-01T03:57:41;-2.90;99.90
51825;DHT22;37879;52.986;6.282;2023-03-01T04:00:09;-2.90;99.90
51825;DHT22;37879;52.986;6.282;2023-03-01T04:02:42;-0.70;99.90
51825;DHT22;37879;52.986;6.282;2023-03-01T04:05:09;-2.90;99.90
51825;DHT22;37879;52.986;6.282;2023-03-01T04:07:35;-2.90;99.90
51825;DHT22;37879;52.986;6.282;2023-03-01T04:10:04;-1.50;99.90
51825;DHT22;37879;52.986;6.282;2023-03-01T04:12:29;-3.00;99.90
51825;DHT22;37879;52.986;6.282;2023-03-01T04:14:55;-3.30;99.90
51825;DHT22;37879;52.986;6.282;2023-03-01T04:17:21;-3.00;99.90
51825;DHT22;37879;52.986;6.282;2023-03-01T04:19:46;-3.00;99.90
51825;DHT22;37879;52.986;6.282;2023-03-01T04:22:14;-2.90;99.90
51825;DHT22;37879;52.986;6.282;2023-03-01T04:24:42;-2.90;99.90
51825;DHT22;37879;52.986;6.282;2023-03-01T04:27:09;-3.00;99.90
51825;DHT22;37879;52.986;6.282;2023-03-01T04:29:34;-3.10;99.90
51825;DHT22;37879;52.986;6.282;2023-03-01T04:32:00;-3.20;99.90
51825;DHT22;37879;52.986;6.282;2023-03-01T04:34:26;-3.20;99.90
51825;DHT22;37879;52.986;6.282;2023-03-01T04:36:54;-3.50;99.90
51825;DHT22;37879;52.986;6.282;2023-03-01T04:39:20;-2.70;99.90
51825;DHT22;37879;52.986;6.282;2023-03-01T04:41:46;-3.60;99.90
51825;DHT22;37879;52.986;6.282;2023-03-01T04:44:12;-3.50;99.90
51825;DHT22;37879;52.986;6.282;2023-03-01T04:46:38;-3.50;99.90
51825;DHT22;37879;52.986;6.282;2023-03-01T04:49:04;-3.60;99.90
51825;DHT22;37879;52.986;6.282;2023-03-01T04:51:30;-3.60;99.90
51825;DHT22;37879;52.986;6.282;2023-03-01T04:53:58;-3.60;99.90
51825;DHT22;37879;52.986;6.282;2023-03-01T04:56:24;-3.80;99.90
51825;DHT22;37879;52.986;6.282;2023-03-01T04:58:52;-3.70;99.90
51825;DHT22;37879;52.986;6.282;2023-03-01T05:01:20;-3.30;99.90
51825;DHT22;37879;52.986;6.282;2023-03-01T05:03:48;-3.70;99.90
51825;DHT22;37879;52.986;6.282;2023-03-01T05:06:14;-3.70;99.90
51825;DHT22;37879;52.986;6.282;2023-03-01T05:08:41;-3.80;99.90
51825;DHT22;37879;52.986;6.282;2023-03-01T05:11:08;-3.80;99.90
51825;DHT22;37879;52.986;6.282;2023-03-01T05:13:38;-6.00;99.90
51825;DHT22;37879;52.986;6.282;2023-03-01T05:16:04;-3.70;99.90
51825;DHT22;37879;52.986;6.282;2023-03-01T05:18:32;-4.10;99.90
51825;DHT22;37879;52.986;6.282;2023-03-01T05:21:10;-3.70;99.90
51825;DHT22;37879;52.986;6.282;2023-03-01T05:23:37;-3.60;99.90
51825;DHT22;37879;52.986;6.282;2023-03-01T05:26:04;-3.70;99.90
51825;DHT22;37879;52.986;6.282;2023-03-01T05:28:31;-3.40;99.90
51825;DHT22;37879;52.986;6.282;2023-03-01T05:30:57;-3.90;99.90
51825;DHT22;37879;52.986;6.282;2023-03-01T05:33:24;-4.10;99.90
51825;DHT22;37879;52.986;6.282;2023-03-01T05:35:50;-4.10;99.90
51825;DHT22;37879;52.986;6.282;2023-03-01T05:38:17;-4.10;99.90
51825;DHT22;37879;52.986;6.282;2023-03-01T05:40:44;-4.20;99.90
51825;DHT22;37879;52.986;6.282;2023-03-01T05:43:12;-4.20;99.90
51825;DHT22;37879;52.986;6.282;2023-03-01T05:45:38;-4.20;99.90
51825;DHT22;37879;52.986;6.282;2023-03-01T05:48:06;-4.10;99.90
51825;DHT22;37879;52.986;6.282;2023-03-01T05:50:37;-4.20;99.90
51825;DHT22;37879;52.986;6.282;2023-03-01T05:53:05;-4.30;99.90
51825;DHT22;37879;52.986;6.282;2023-03-01T05:55:33;-4.20;99.90
51825;DHT22;37879;52.986;6.282;2023-03-01T05:58:00;-4.30;99.90
51825;DHT22;37879;52.986;6.282;2023-03-01T06:00:26;-4.10;99.90
51825;DHT22;37879;52.986;6.282;2023-03-01T06:02:54;-4.20;99.90
51825;DHT22;37879;52.986;6.282;2023-03-01T06:05:20;-4.20;99.90
51825;DHT22;37879;52.986;6.282;2023-03-01T06:07:46;-4.10;99.90
51825;DHT22;37879;52.986;6.282;2023-03-01T06:10:12;-4.10;99.90
51825;DHT22;37879;52.986;6.282;2023-03-01T06:12:39;-4.40;99.90
51825;DHT22;37879;52.986;6.282;2023-03-01T06:15:07;-4.20;99.90
51825;DHT22;37879;52.986;6.282;2023-03-01T06:17:36;-4.20;99.90
51825;DHT22;37879;52.986;6.282;2023-03-01T06:20:09;-4.20;99.90
51825;DHT22;37879;52.986;6.282;2023-03-01T06:22:35;-4.20;99.90
51825;DHT22;37879;52.986;6.282;2023-03-01T06:25:01;-4.60;99.90
51825;DHT22;37879;52.986;6.282;2023-03-01T06:27:26;-4.20;99.90
51825;DHT22;37879;52.986;6.282;2023-03-01T06:29:52;-4.40;99.90
51825;DHT22;37879;52.986;6.282;2023-03-01T06:32:17;-4.10;99.90
51825;DHT22;37879;52.986;6.282;2023-03-01T06:34:43;-4.40;99.90
51825;DHT22;37879;52.986;6.282;2023-03-01T06:37:09;-2.70;99.90
51825;DHT22;37879;52.986;6.282;2023-03-01T06:42:01;-4.10;99.90
51825;DHT22;37879;52.986;6.282;2023-03-01T06:44:27;-4.10;99.90
51825;DHT22;37879;52.986;6.282;2023-03-01T06:46:53;-3.60;99.90
51825;DHT22;37879;52.986;6.282;2023-03-01T06:51:45;-4.00;99.90
51825;DHT22;37879;52.986;6.282;2023-03-01T06:54:11;-4.00;99.90
51825;DHT22;37879;52.986;6.282;2023-03-01T06:56:37;-4.00;99.90
51825;DHT22;37879;52.986;6.282;2023-03-01T06:59:03;-3.90;99.90
51825;DHT22;37879;52.986;6.282;2023-03-01T07:01:29;-5.30;99.90
51825;DHT22;37879;52.986;6.282;2023-03-01T07:03:55;-3.20;99.90
51825;DHT22;37879;52.986;6.282;2023-03-01T07:06:21;-3.70;99.90
51825;DHT22;37879;52.986;6.282;2023-03-01T07:08:47;-3.60;99.90
51825;DHT22;37879;52.986;6.282;2023-03-01T07:11:13;-3.60;99.90
51825;DHT22;37879;52.986;6.282;2023-03-01T07:13:39;-3.30;99.90
51825;DHT22;37879;52.986;6.282;2023-03-01T07:16:05;-3.40;99.90
51825;DHT22;37879;52.986;6.282;2023-03-01T07:18:30;-3.40;99.90
51825;DHT22;37879;52.986;6.282;2023-03-01T07:20:56;-3.30;99.90
51825;DHT22;37879;52.986;6.282;2023-03-01T07:23:22;-3.10;99.90
51825;DHT22;37879;52.986;6.282;2023-03-01T07:25:54;-3.10;99.90
51825;DHT22;37879;52.986;6.282;2023-03-01T07:28:20;-3.00;99.90
51825;DHT22;37879;52.986;6.282;2023-03-01T07:30:47;-3.00;99.90
51825;DHT22;37879;52.986;6.282;2023-03-01T07:33:13;-2.90;99.90
51825;DHT22;37879;52.986;6.282;2023-03-01T07:35:38;-1.50;99.90
51825;DHT22;37879;52.986;6.282;2023-03-01T07:38:04;-2.80;99.90
51825;DHT22;37879;52.986;6.282;2023-03-01T07:40:30;-2.70;99.90
51825;DHT22;37879;52.986;6.282;2023-03-01T07:42:58;-2.60;99.90
51825;DHT22;37879;52.986;6.282;2023-03-01T07:45:27;-2.40;99.90
51825;DHT22;37879;52.986;6.282;2023-03-01T07:47:55;-2.30;99.90
51825;DHT22;37879;52.986;6.282;2023-03-01T07:50:21;-2.30;99.90
51825;DHT22;37879;52.986;6.282;2023-03-01T07:52:48;-2.10;99.90
51825;DHT22;37879;52.986;6.282;2023-03-01T07:55:15;-1.20;99.90
51825;DHT22;37879;52.986;6.282;2023-03-01T07:57:41;-2.10;99.90
51825;DHT22;37879;52.986;6.282;2023-03-01T08:00:09;-1.90;99.90
51825;DHT22;37879;52.986;6.282;2023-03-01T08:02:35;-1.70;99.90
51825;DHT22;37879;52.986;6.282;2023-03-01T08:05:01;-1.70;99.90
51825;DHT22;37879;52.986;6.282;2023-03-01T08:07:26;-1.60;99.90
51825;DHT22;37879;52.986;6.282;2023-03-01T08:09:52;-1.50;99.90
51825;DHT22;37879;52.986;6.282;2023-03-01T08:12:18;-1.40;99.90
51825;DHT22;37879;52.986;6.282;2023-03-01T08:14:43;-1.30;99.90
51825;DHT22;37879;52.986;6.282;2023-03-01T08:17:09;-1.10;99.90
51825;DHT22;37879;52.986;6.282;2023-03-01T08:19:35;-1.00;99.90
51825;DHT22;37879;52.986;6.282;2023-03-01T08:22:04;-0.90;99.90
51825;DHT22;37879;52.986;6.282;2023-03-01T08:24:29;-0.70;99.90
51825;DHT22;37879;52.986;6.282;2023-03-01T08:26:55;-0.20;99.90
51825;DHT22;37879;52.986;6.282;2023-03-01T08:29:21;-0.50;99.90
51825;DHT22;37879;52.986;6.282;2023-03-01T08:31:48;-0.40;99.90
51825;DHT22;37879;52.986;6.282;2023-03-01T08:34:15;-0.40;99.90
51825;DHT22;37879;52.986;6.282;2023-03-01T08:36:42;-0.30;99.90
51825;DHT22;37879;52.986;6.282;2023-03-01T08:39:11;-0.20;99.90
51825;DHT22;37879;52.986;6.282;2023-03-01T08:41:37;-0.10;99.90
51825;DHT22;37879;52.986;6.282;2023-03-01T08:44:03;0.10;99.90
51825;DHT22;37879;52.986;6.282;2023-03-01T08:46:31;0.20;99.90
51825;DHT22;37879;52.986;6.282;2023-03-01T08:48:57;1.20;99.90
51825;DHT22;37879;52.986;6.282;2023-03-01T08:51:24;0.40;99.90
51825;DHT22;37879;52.986;6.282;2023-03-01T08:53:50;0.50;99.90
51825;DHT22;37879;52.986;6.282;2023-03-01T08:56:16;0.50;99.90
51825;DHT22;37879;52.986;6.282;2023-03-01T08:58:47;0.60;99.90
51825;DHT22;37879;52.986;6.282;2023-03-01T09:01:15;0.70;99.90
51825;DHT22;37879;52.986;6.282;2023-03-01T09:03:42;0.90;99.90
51825;DHT22;37879;52.986;6.282;2023-03-01T09:06:08;0.90;99.90
51825;DHT22;37879;52.986;6.282;2023-03-01T09:08:40;1.10;99.90
51825;DHT22;37879;52.986;6.282;2023-03-01T09:11:08;1.10;99.90
51825;DHT22;37879;52.986;6.282;2023-03-01T09:13:34;1.20;99.90
51825;DHT22;37879;52.986;6.282;2023-03-01T09:16:05;1.30;99.90
51825;DHT22;37879;52.986;6.282;2023-03-01T09:18:31;1.40;99.90
51825;DHT22;37879;52.986;6.282;2023-03-01T09:21:08;1.60;99.90
51825;DHT22;37879;52.986;6.282;2023-03-01T09:23:40;1.70;99.90
51825;DHT22;37879;52.986;6.282;2023-03-01T09:26:10;1.70;99.90
51825;DHT22;37879;52.986;6.282;2023-03-01T09:28:37;1.80;99.90
51825;DHT22;37879;52.986;6.282;2023-03-01T09:31:03;1.90;99.90
51825;DHT22;37879;52.986;6.282;2023-03-01T09:33:30;2.00;99.90
51825;DHT22;37879;52.986;6.282;2023-03-01T09:36:02;2.10;99.90
51825;DHT22;37879;52.986;6.282;2023-03-01T09:38:28;2.10;99.90
51825;DHT22;37879;52.986;6.282;2023-03-01T09:40:55;2.30;99.90
51825;DHT22;37879;52.986;6.282;2023-03-01T09:46:09;2.40;99.90
51825;DHT22;37879;52.986;6.282;2023-03-01T09:48:58;2.40;99.90
51825;DHT22;37879;52.986;6.282;2023-03-01T09:51:32;2.60;99.90
51825;DHT22;37879;52.986;6.282;2023-03-01T09:53:58;2.70;99.90
51825;DHT22;37879;52.986;6.282;2023-03-01T09:56:49;2.80;99.90
51825;DHT22;37879;52.986;6.282;2023-03-01T09:59:28;2.90;99.90
51825;DHT22;37879;52.986;6.282;2023-03-01T10:02:01;3.70;99.90
51825;DHT22;37879;52.986;6.282;2023-03-01T10:09:46;3.30;99.90
51825;DHT22;37879;52.986;6.282;2023-03-01T10:12:16;3.90;99.90
51825;DHT22;37879;52.986;6.282;2023-03-01T10:17:52;3.60;99.90
51825;DHT22;37879;52.986;6.282;2023-03-01T10:20:26;3.60;99.90
51825;DHT22;37879;52.986;6.282;2023-03-01T10:22:55;3.70;99.90
51825;DHT22;37879;52.986;6.282;2023-03-01T10:28:16;3.90;99.90
51825;DHT22;37879;52.986;6.282;2023-03-01T10:30:42;4.00;99.90
51825;DHT22;37879;52.986;6.282;2023-03-01T10:33:22;4.10;99.90
51825;DHT22;37879;52.986;6.282;2023-03-01T10:35:49;4.20;99.90
51825;DHT22;37879;52.986;6.282;2023-03-01T10:38:15;5.00;99.90
51825;DHT22;37879;52.986;6.282;2023-03-01T10:40:59;4.30;99.90
51825;DHT22;37879;52.986;6.282;2023-03-01T10:43:32;4.30;99.90
51825;DHT22;37879;52.986;6.282;2023-03-01T10:46:31;4.40;99.90
51825;DHT22;37879;52.986;6.282;2023-03-01T10:49:42;4.50;99.90
51825;DHT22;37879;52.986;6.282;2023-03-01T10:52:17;4.50;99.90
51825;DHT22;37879;52.986;6.282;2023-03-01T10:54:56;4.60;99.90
51825;DHT22;37879;52.986;6.282;2023-03-01T10:57:42;4.60;99.90
51825;DHT22;37879;52.986;6.282;2023-03-01T11:00:18;4.70;99.90
51825;DHT22;37879;52.986;6.282;2023-03-01T11:05:24;4.90;99.90
51825;DHT22;37879;52.986;6.282;2023-03-01T11:07:54;4.90;99.90
51825;DHT22;37879;52.986;6.282;2023-03-01T11:10:40;5.10;99.90
51825;DHT22;37879;52.986;6.282;2023-03-01T11:13:17;4.90;99.90
51825;DHT22;37879;52.986;6.282;2023-03-01T11:15:59;5.00;99.90
51825;DHT22;37879;52.986;6.282;2023-03-01T11:18:26;5.10;99.90
51825;DHT22;37879;52.986;6.282;2023-03-01T11:20:53;5.20;99.90
51825;DHT22;37879;52.986;6.282;2023-03-01T11:23:21;5.30;99.90
51825;DHT22;37879;52.986;6.282;2023-03-01T11:25:59;5.40;99.90
51825;DHT22;37879;52.986;6.282;2023-03-01T11:28:28;5.50;99.90
51825;DHT22;37879;52.986;6.282;2023-03-01T11:31:09;5.60;99.90
51825;DHT22;37879;52.986;6.282;2023-03-01T11:38:41;6.50;99.90
51825;DHT22;37879;52.986;6.282;2023-03-01T11:41:14;5.90;99.90
51825;DHT22;37879;52.986;6.282;2023-03-01T11:44:01;6.00;99.90
51825;DHT22;37879;52.986;6.282;2023-03-01T11:49:17;6.20;99.90
51825;DHT22;37879;52.986;6.282;2023-03-01T11:51:55;6.30;99.90
51825;DHT22;37879;52.986;6.282;2023-03-01T11:57:00;6.80;99.90
51825;DHT22;37879;52.986;6.282;2023-03-01T12:02:02;6.70;99.90
51825;DHT22;37879;52.986;6.282;2023-03-01T12:08:00;6.30;99.90
51825;DHT22;37879;52.986;6.282;2023-03-01T12:10:36;6.40;99.90
51825;DHT22;37879;52.986;6.282;2023-03-01T12:13:25;6.40;99.90
51825;DHT22;37879;52.986;6.282;2023-03-01T12:23:56;6.60;99.90
51825;DHT22;37879;52.986;6.282;2023-03-01T12:26:31;6.70;99.90
51825;DHT22;37879;52.986;6.282;2023-03-01T12:31:49;6.80;99.90
51825;DHT22;37879;52.986;6.282;2023-03-01T12:45:43;7.00;99.90
51825;DHT22;37879;52.986;6.282;2023-03-01T12:51:20;7.00;99.90
51825;DHT22;37879;52.986;6.282;2023-03-01T12:53:51;7.00;99.90
51825;DHT22;37879;52.986;6.282;2023-03-01T12:56:22;7.00;99.90
51825;DHT22;37879;52.986;6.282;2023-03-01T13:01:26;7.10;99.90
51825;DHT22;37879;52.986;6.282;2023-03-01T13:04:23;7.10;99.90
51825;DHT22;37879;52.986;6.282;2023-03-01T13:09:38;7.30;99.90
51825;DHT22;37879;52.986;6.282;2023-03-01T13:15:33;7.20;99.90
51825;DHT22;37879;52.986;6.282;2023-03-01T13:23:23;7.30;99.90
51825;DHT22;37879;52.986;6.282;2023-03-01T13:28:48;7.40;99.90
51825;DHT22;37879;52.986;6.282;2023-03-01T13:36:07;7.40;99.90
51825;DHT22;37879;52.986;6.282;2023-03-01T13:38:45;7.40;99.90
51825;DHT22;37879;52.986;6.282;2023-03-01T13:41:15;7.40;99.90
51825;DHT22;37879;52.986;6.282;2023-03-01T13:43:44;7.40;99.90
51825;DHT22;37879;52.986;6.282;2023-03-01T13:46:17;7.50;99.90
51825;DHT22;37879;52.986;6.282;2023-03-01T13:48:52;7.70;99.90
51825;DHT22;37879;52.986;6.282;2023-03-01T13:51:25;7.70;99.90
51825;DHT22;37879;52.986;6.282;2023-03-01T13:53:51;7.80;99.90
51825;DHT22;37879;52.986;6.282;2023-03-01T13:56:29;8.60;99.90
51825;DHT22;37879;52.986;6.282;2023-03-01T13:59:02;7.80;99.90
51825;DHT22;37879;52.986;6.282;2023-03-01T14:01:36;7.80;99.90
51825;DHT22;37879;52.986;6.282;2023-03-01T14:04:03;7.90;99.90
51825;DHT22;37879;52.986;6.282;2023-03-01T14:06:31;7.90;99.90
51825;DHT22;37879;52.986;6.282;2023-03-01T14:09:24;7.90;99.90
51825;DHT22;37879;52.986;6.282;2023-03-01T14:17:38;7.80;99.90
51825;DHT22;37879;52.986;6.282;2023-03-01T14:22:42;7.70;99.90
51825;DHT22;37879;52.986;6.282;2023-03-01T14:25:38;7.70;99.90
51825;DHT22;37879;52.986;6.282;2023-03-01T14:28:37;7.70;99.90
51825;DHT22;37879;52.986;6.282;2023-03-01T14:31:39;7.70;99.90
51825;DHT22;37879;52.986;6.282;2023-03-01T14:34:05;8.50;99.90
51825;DHT22;37879;52.986;6.282;2023-03-01T14:36:33;7.60;99.90
51825;DHT22;37879;52.986;6.282;2023-03-01T14:39:00;7.60;99.90
51825;DHT22;37879;52.986;6.282;2023-03-01T14:41:33;7.50;99.90
51825;DHT22;37879;52.986;6.282;2023-03-01T14:46:34;7.40;99.90
51825;DHT22;37879;52.986;6.282;2023-03-01T14:49:14;7.40;99.90
51825;DHT22;37879;52.986;6.282;2023-03-01T14:51:43;7.40;99.90
51825;DHT22;37879;52.986;6.282;2023-03-01T14:54:24;7.30;99.90
51825;DHT22;37879;52.986;6.282;2023-03-01T14:56:52;7.30;99.90
51825;DHT22;37879;52.986;6.282;2023-03-01T14:59:21;7.70;99.90
51825;DHT22;37879;52.986;6.282;2023-03-01T15:01:49;7.30;99.90
51825;DHT22;37879;52.986;6.282;2023-03-01T15:04:19;7.30;99.90
51825;DHT22;37879;52.986;6.282;2023-03-01T15:06:52;7.30;99.90
51825;DHT22;37879;52.986;6.282;2023-03-01T15:09:22;7.70;99.90
51825;DHT22;37879;52.986;6.282;2023-03-01T15:11:49;7.20;99.90
51825;DHT22;37879;52.986;6.282;2023-03-01T15:17:37;7.40;99.90
51825;DHT22;37879;52.986;6.282;2023-03-01T15:20:24;7.10;99.90
51825;DHT22;37879;52.986;6.282;2023-03-01T15:22:58;7.00;99.90
51825;DHT22;37879;52.986;6.282;2023-03-01T15:25:43;7.20;99.90
51825;DHT22;37879;52.986;6.282;2023-03-01T15:28:26;6.90;99.90
51825;DHT22;37879;52.986;6.282;2023-03-01T15:31:23;7.50;99.90
51825;DHT22;37879;52.986;6.282;2023-03-01T15:36:43;6.90;99.90
51825;DHT22;37879;52.986;6.282;2023-03-01T15:39:33;6.90;99.90
51825;DHT22;37879;52.986;6.282;2023-03-01T15:45:28;6.90;99.90
51825;DHT22;37879;52.986;6.282;2023-03-01T15:47:56;6.90;99.90
51825;DHT22;37879;52.986;6.282;2023-03-01T15:50:35;6.80;99.90
51825;DHT22;37879;52.986;6.282;2023-03-01T15:53:13;6.80;99.90
51825;DHT22;37879;52.986;6.282;2023-03-01T15:55:40;6.70;99.90
51825;DHT22;37879;52.986;6.282;2023-03-01T16:00:36;6.70;99.90
51825;DHT22;37879;52.986;6.282;2023-03-01T16:03:01;6.70;99.90
51825;DHT22;37879;52.986;6.282;2023-03-01T16:05:32;6.70;99.90
51825;DHT22;37879;52.986;6.282;2023-03-01T16:07:58;6.70;99.90
51825;DHT22;37879;52.986;6.282;2023-03-01T16:10:24;7.20;99.90
51825;DHT22;37879;52.986;6.282;2023-03-01T16:12:51;6.70;99.90
51825;DHT22;37879;52.986;6.282;2023-03-01T16:15:29;7.90;99.90
51825;DHT22;37879;52.986;6.282;2023-03-01T16:17:55;6.70;99.90
51825;DHT22;37879;52.986;6.282;2023-03-01T16:20:24;6.70;99.90
51825;DHT22;37879;52.986;6.282;2023-03-01T16:22:50;6.70;99.90
51825;DHT22;37879;52.986;6.282;2023-03-01T16:25:18;6.90;99.90
51825;DHT22;37879;52.986;6.282;2023-03-01T16:27:45;6.60;99.90
51825;DHT22;37879;52.986;6.282;2023-03-01T16:30:13;6.50;99.90
51825;DHT22;37879;52.986;6.282;2023-03-01T16:32:40;6.50;99.90
51825;DHT22;37879;52.986;6.282;2023-03-01T16:35:07;6.40;99.90
51825;DHT22;37879;52.986;6.282;2023-03-01T16:37:34;6.30;99.90
51825;DHT22;37879;52.986;6.282;2023-03-01T16:40:00;6.80;99.90
51825;DHT22;37879;52.986;6.282;2023-03-01T16:42:26;6.20;99.90
51825;DHT22;37879;52.986;6.282;2023-03-01T16:44:55;6.10;99.90
51825;DHT22;37879;52.986;6.282;2023-03-01T16:47:21;6.10;99.90
51825;DHT22;37879;52.986;6.282;2023-03-01T16:49:47;6.00;99.90
51825;DHT22;37879;52.986;6.282;2023-03-01T16:52:16;6.00;99.90
51825;DHT22;37879;52.986;6.282;2023-03-01T16:54:42;5.90;99.90
51825;DHT22;37879;52.986;6.282;2023-03-01T16:57:08;5.90;99.90
51825;DHT22;37879;52.986;6.282;2023-03-01T16:59:33;5.90;99.90
51825;DHT22;37879;52.986;6.282;2023-03-01T17:01:59;5.90;99.90
51825;DHT22;37879;52.986;6.282;2023-03-01T17:04:24;5.90;99.90
51825;DHT22;37879;52.986;6.282;2023-03-01T17:06:50;5.80;99.90
51825;DHT22;37879;52.986;6.282;2023-03-01T17:09:16;5.70;99.90
51825;DHT22;37879;52.986;6.282;2023-03-01T17:11:43;5.70;99.90
51825;DHT22;37879;52.986;6.282;2023-03-01T17:14:08;5.60;99.90
51825;DHT22;37879;52.986;6.282;2023-03-01T17:16:34;5.60;99.90
51825;DHT22;37879;52.986;6.282;2023-03-01T17:19:00;5.50;99.90
51825;DHT22;37879;52.986;6.282;2023-03-01T17:21:26;5.40;99.90
51825;DHT22;37879;52.986;6.282;2023-03-01T17:23:56;5.30;99.90
51825;DHT22;37879;52.986;6.282;2023-03-01T17:26:22;5.20;99.90
51825;DHT22;37879;52.986;6.282;2023-03-01T17:28:47;5.70;99.90
51825;DHT22;37879;52.986;6.282;2023-03-01T17:31:16;5.10;99.90
51825;DHT22;37879;52.986;6.282;2023-03-01T17:33:42;5.10;99.90
51825;DHT22;37879;52.986;6.282;2023-03-01T17:36:08;5.10;99.90
51825;DHT22;37879;52.986;6.282;2023-03-01T17:38:33;5.40;99.90
51825;DHT22;37879;52.986;6.282;2023-03-01T17:41:00;5.00;99.90
51825;DHT22;37879;52.986;6.282;2023-03-01T17:43:27;4.90;99.90
51825;DHT22;37879;52.986;6.282;2023-03-01T17:45:53;4.90;99.90
51825;DHT22;37879;52.986;6.282;2023-03-01T17:48:19;4.80;99.90